createdAt,value
2018-08-18T00:00:21.187Z,100792.09
2018-08-18T00:01:27.140Z,100794.86
2018-08-18T00:02:33.012Z,100786.44
2018-08-18T00:03:38.427Z,100786.20
2018-08-18T00:04:44.465Z,100793.58
2018-08-18T00:05:49.748Z,100790.02
2018-08-18T00:06:55.469Z,100788.54
2018-08-18T00:08:01.469Z,100789.59
2018-08-18T00:09:07.904Z,100784.09
2018-08-18T00:10:13.252Z,100788.56
2018-08-18T00:11:18.988Z,100784.43
2018-08-18T00:12:24.906Z,100783.60
2018-08-18T00:13:30.469Z,100788.70
2018-08-18T00:14:36.605Z,100786.14
2018-08-18T00:15:42.609Z,100790.62
2018-08-18T00:16:48.258Z,100793.26
2018-08-18T00:17:54.250Z,100787.88
2018-08-18T00:19:00.356Z,100794.12
2018-08-18T00:20:05.772Z,100789.93
2018-08-18T00:21:11.720Z,100797.02
2018-08-18T00:22:17.857Z,100801.69
2018-08-18T00:23:23.622Z,100793.69
2018-08-18T00:24:29.863Z,100801.12
2018-08-18T00:25:40.927Z,100801.88
2018-08-18T00:26:47.014Z,100806.59
2018-08-18T00:27:52.310Z,100809.15
2018-08-18T00:28:57.999Z,100809.34
2018-08-18T00:30:03.355Z,100808.64
2018-08-18T00:31:09.079Z,100814.29
2018-08-18T00:32:15.689Z,100811.89
2018-08-18T00:33:21.362Z,100813.57
2018-08-18T00:34:28.253Z,100816.61
2018-08-18T00:35:33.536Z,100815.14
2018-08-18T00:36:39.325Z,100812.80
2018-08-18T00:37:45.408Z,100810.30
2018-08-18T00:38:51.281Z,100819.57
2018-08-18T00:39:56.857Z,100816.45
2018-08-18T00:41:02.741Z,100816.45
2018-08-18T00:42:08.883Z,100814.53
2018-08-18T00:43:14.665Z,100814.45
2018-08-18T00:44:20.888Z,100810.28
2018-08-18T00:45:27.231Z,100817.25
2018-08-18T00:46:33.283Z,100819.48
2018-08-18T00:47:39.445Z,100824.03
2018-08-18T00:48:45.079Z,100824.22
2018-08-18T00:49:51.055Z,100822.79
2018-08-18T00:50:56.592Z,100828.12
2018-08-18T00:52:02.780Z,100832.54
2018-08-18T00:53:08.527Z,100828.17
2018-08-18T00:54:14.532Z,100832.94
2018-08-18T00:55:21.551Z,100830.52
2018-08-18T00:56:27.918Z,100831.77
2018-08-18T00:57:33.281Z,100832.22
2018-08-18T00:58:38.610Z,100827.74
2018-08-18T00:59:43.659Z,100836.45
2018-08-18T01:00:49.848Z,100830.51
2018-08-18T01:01:56.340Z,100831.17
2018-08-18T01:03:02.160Z,100823.80
2018-08-18T01:04:07.829Z,100825.17
2018-08-18T01:05:13.863Z,100829.17
2018-08-18T01:06:19.064Z,100827.17
2018-08-18T01:07:24.244Z,100824.36
2018-08-18T01:08:30.263Z,100827.66
2018-08-18T01:09:35.669Z,100825.47
2018-08-18T01:10:41.641Z,100833.64
2018-08-18T01:11:47.655Z,100832.97
2018-08-18T01:12:54.030Z,100833.22
2018-08-18T01:13:59.390Z,100836.73
2018-08-18T01:15:04.906Z,100831.89
2018-08-18T01:16:11.496Z,100833.65
2018-08-18T01:17:17.207Z,100826.02
2018-08-18T01:18:22.840Z,100821.61
2018-08-18T01:19:29.277Z,100822.42
2018-08-18T01:20:35.146Z,100824.79
2018-08-18T01:21:40.943Z,100819.52
2018-08-18T01:22:46.795Z,100823.98
2018-08-18T01:23:52.684Z,100818.32
2018-08-18T01:24:58.635Z,100817.70
2018-08-18T01:26:04.426Z,100819.38
2018-08-18T01:27:10.555Z,100820.70
2018-08-18T01:28:16.468Z,100818.12
2018-08-18T01:29:22.496Z,100820.89
2018-08-18T01:30:28.278Z,100822.41
2018-08-18T01:31:34.429Z,100821.18
2018-08-18T01:32:40.519Z,100819.38
2018-08-18T01:33:46.545Z,100814.42
2018-08-18T01:34:52.189Z,100813.00
2018-08-18T01:35:58.214Z,100809.23
2018-08-18T01:37:03.773Z,100815.70
2018-08-18T01:38:09.856Z,100809.28
2018-08-18T01:39:15.275Z,100800.09
2018-08-18T01:40:21.421Z,100802.72
2018-08-18T01:41:26.725Z,100803.70
2018-08-18T01:42:32.973Z,100805.56
2018-08-18T01:43:39.269Z,100806.70
2018-08-18T01:44:45.244Z,100803.09
2018-08-18T01:45:51.239Z,100795.81
2018-08-18T01:46:57.243Z,100803.19
2018-08-18T01:48:03.204Z,100797.72
2018-08-18T01:49:08.364Z,100802.94
2018-08-18T01:50:14.220Z,100805.40
2018-08-18T01:51:19.556Z,100803.13
2018-08-18T01:52:25.572Z,100799.47
2018-08-18T01:53:31.674Z,100798.55
2018-08-18T01:54:38.025Z,100805.40
2018-08-18T01:55:43.934Z,100802.21
2018-08-18T01:56:50.005Z,100796.40
2018-08-18T01:57:56.064Z,100800.24
2018-08-18T01:59:02.230Z,100799.91
2018-08-18T02:00:07.299Z,100804.89
2018-08-18T02:01:13.409Z,100796.95
2018-08-18T02:02:19.226Z,100801.42
2018-08-18T02:03:25.273Z,100799.14
2018-08-18T02:04:31.625Z,100801.15
2018-08-18T02:05:37.996Z,100794.95
2018-08-18T02:06:44.377Z,100800.33
2018-08-18T02:07:50.428Z,100800.08
2018-08-18T02:08:55.868Z,100795.70
2018-08-18T02:10:01.533Z,100796.13
2018-08-18T02:11:07.291Z,100798.32
2018-08-18T02:12:13.323Z,100805.31
2018-08-18T02:13:19.194Z,100806.39
2018-08-18T02:14:25.256Z,100811.54
2018-08-18T02:15:30.527Z,100806.50
2018-08-18T02:16:36.615Z,100803.97
2018-08-18T02:17:42.482Z,100802.69
2018-08-18T02:18:48.492Z,100803.21
2018-08-18T02:19:54.578Z,100801.73
2018-08-18T02:21:00.746Z,100806.37
2018-08-18T02:22:06.052Z,100801.47
2018-08-18T02:23:11.248Z,100808.55
2018-08-18T02:24:17.373Z,100800.84
2018-08-18T02:25:23.639Z,100799.94
2018-08-18T02:26:29.885Z,100804.77
2018-08-18T02:27:34.974Z,100800.30
2018-08-18T02:28:41.269Z,100802.58
2018-08-18T02:29:46.596Z,100805.29
2018-08-18T02:30:52.564Z,100805.89
2018-08-18T02:31:58.651Z,100803.05
2018-08-18T02:33:04.389Z,100803.86
2018-08-18T02:34:10.479Z,100801.62
2018-08-18T02:35:15.767Z,100800.30
2018-08-18T02:36:21.404Z,100801.70
2018-08-18T02:37:27.083Z,100800.64
2018-08-18T02:38:33.017Z,100799.56
2018-08-18T02:39:39.123Z,100799.39
2018-08-18T02:40:45.261Z,100802.02
2018-08-18T02:41:50.436Z,100799.61
2018-08-18T02:42:56.600Z,100798.63
2018-08-18T02:44:02.561Z,100796.70
2018-08-18T02:45:08.001Z,100797.02
2018-08-18T02:46:13.361Z,100795.87
2018-08-18T02:47:19.438Z,100790.12
2018-08-18T02:48:25.460Z,100796.22
2018-08-18T02:49:31.554Z,100792.70
2018-08-18T02:50:37.437Z,100796.97
2018-08-18T02:51:43.845Z,100790.70
2018-08-18T02:52:49.831Z,100797.60
2018-08-18T02:53:55.930Z,100797.85
2018-08-18T02:55:01.539Z,100800.44
2018-08-18T02:56:07.444Z,100802.24
2018-08-18T02:57:13.144Z,100800.39
2018-08-18T02:58:19.183Z,100812.19
2018-08-18T02:59:25.284Z,100806.65
2018-08-18T03:00:31.420Z,100812.31
2018-08-18T03:01:37.376Z,100808.39
2018-08-18T03:02:43.442Z,100807.13
2018-08-18T03:03:49.428Z,100811.80
2018-08-18T03:04:55.778Z,100810.22
2018-08-18T03:06:01.606Z,100811.64
2018-08-18T03:07:07.388Z,100813.56
2018-08-18T03:08:13.004Z,100807.67
2018-08-18T03:09:19.781Z,100808.98
2018-08-18T03:10:26.098Z,100819.98
2018-08-18T03:11:32.172Z,100811.34
2018-08-18T03:12:38.277Z,100813.58
2018-08-18T03:13:44.708Z,100811.09
2018-08-18T03:14:50.933Z,100815.73
2018-08-18T03:15:57.014Z,100821.13
2018-08-18T03:17:02.998Z,100817.02
2018-08-18T03:18:08.320Z,100819.00
2018-08-18T03:19:14.416Z,100818.75
2018-08-18T03:20:20.559Z,100806.75
2018-08-18T03:21:26.059Z,100809.88
2018-08-18T03:22:31.789Z,100807.60
2018-08-18T03:23:37.639Z,100808.00
2018-08-18T03:24:43.649Z,100807.45
2018-08-18T03:25:49.279Z,100808.33
2018-08-18T03:26:55.331Z,100810.27
2018-08-18T03:28:01.360Z,100815.16
2018-08-18T03:29:07.841Z,100812.56
2018-08-18T03:30:14.188Z,100810.73
2018-08-18T03:31:20.242Z,100819.59
2018-08-18T03:32:26.264Z,100816.19
2018-08-18T03:33:32.014Z,100820.38
2018-08-18T03:34:38.373Z,100817.92
2018-08-18T03:35:44.813Z,100818.00
2018-08-18T03:36:50.422Z,100822.86
2018-08-18T03:37:56.161Z,100822.77
2018-08-18T03:39:01.749Z,100826.33
2018-08-18T03:40:07.228Z,100818.92
2018-08-18T03:41:13.287Z,100822.28
2018-08-18T03:42:19.397Z,100823.97
2018-08-18T03:43:25.499Z,100832.11
2018-08-18T03:44:31.021Z,100824.30
2018-08-18T03:45:37.016Z,100829.36
2018-08-18T03:46:42.730Z,100833.01
2018-08-18T03:47:48.807Z,100831.77
2018-08-18T03:48:54.219Z,100833.28
2018-08-18T03:50:00.256Z,100838.31
2018-08-18T03:51:06.240Z,100832.43
2018-08-18T03:52:12.331Z,100834.39
2018-08-18T03:53:18.453Z,100837.28
2018-08-18T03:54:25.220Z,100833.44
2018-08-18T03:55:30.652Z,100839.96
2018-08-18T03:56:36.639Z,100832.75
2018-08-18T03:57:42.326Z,100835.39
2018-08-18T03:58:47.779Z,100843.73
2018-08-18T03:59:53.829Z,100844.31
2018-08-18T04:01:00.155Z,100845.36
2018-08-18T04:02:06.364Z,100842.84
2018-08-18T04:03:12.573Z,100845.72
2018-08-18T04:04:18.884Z,100841.80
2018-08-18T04:05:25.012Z,100844.33
2018-08-18T04:06:30.987Z,100848.03
2018-08-18T04:07:36.744Z,100848.66
2018-08-18T04:08:42.447Z,100844.82
2018-08-18T04:09:48.267Z,100847.73
2018-08-18T04:10:54.567Z,100844.52
2018-08-18T04:12:00.328Z,100836.83
2018-08-18T04:13:06.336Z,100849.19
2018-08-18T04:14:12.410Z,100842.71
2018-08-18T04:15:18.080Z,100842.03
2018-08-18T04:16:24.765Z,100840.83
2018-08-18T04:17:30.507Z,100839.17
2018-08-18T04:18:36.539Z,100841.95
2018-08-18T04:19:42.656Z,100844.56
2018-08-18T04:20:48.676Z,100846.50
2018-08-18T04:21:54.759Z,100847.78
2018-08-18T04:23:01.122Z,100852.39
2018-08-18T04:24:06.908Z,100851.52
2018-08-18T04:25:13.271Z,100848.77
2018-08-18T04:26:19.523Z,100849.08
2018-08-18T04:27:25.312Z,100853.72
2018-08-18T04:28:31.340Z,100859.10
2018-08-18T04:29:37.456Z,100855.77
2018-08-18T04:30:43.779Z,100861.16
2018-08-18T04:31:50.830Z,100852.53
2018-08-18T04:32:58.074Z,100856.39
2018-08-18T04:34:04.100Z,100855.83
2018-08-18T04:35:09.454Z,100852.31
2018-08-18T04:36:15.791Z,100854.05
2018-08-18T04:37:21.789Z,100857.77
2018-08-18T04:38:27.905Z,100860.06
2018-08-18T04:39:33.311Z,100860.23
2018-08-18T04:40:39.597Z,100858.86
2018-08-18T04:41:45.744Z,100859.56
2018-08-18T04:42:51.988Z,100870.05
2018-08-18T04:43:58.169Z,100871.20
2018-08-18T04:45:03.743Z,100868.08
2018-08-18T04:46:09.768Z,100871.34
2018-08-18T04:47:15.733Z,100866.56
2018-08-18T04:48:21.153Z,100868.69
2018-08-18T04:49:27.243Z,100870.09
2018-08-18T04:50:33.565Z,100870.23
2018-08-18T04:51:39.789Z,100870.38
2018-08-18T04:52:45.515Z,100876.31
2018-08-18T04:53:51.593Z,100868.98
2018-08-18T04:54:57.880Z,100875.20
2018-08-18T04:56:03.901Z,100874.72
2018-08-18T04:57:10.143Z,100875.08
2018-08-18T04:58:16.125Z,100871.72
2018-08-18T04:59:21.615Z,100870.95
2018-08-18T05:00:27.973Z,100877.69
2018-08-18T05:01:34.048Z,100874.52
2018-08-18T05:02:39.656Z,100873.70
2018-08-18T05:03:44.678Z,100876.16
2018-08-18T05:04:50.784Z,100874.45
2018-08-18T05:05:56.827Z,100880.59
2018-08-18T05:07:03.029Z,100874.73
2018-08-18T05:08:09.118Z,100874.00
2018-08-18T05:09:15.358Z,100875.93
2018-08-18T05:10:22.047Z,100876.38
2018-08-18T05:11:28.246Z,100874.46
2018-08-18T05:12:34.579Z,100880.76
2018-08-18T05:13:40.689Z,100879.31
2018-08-18T05:14:46.777Z,100880.40
2018-08-18T05:15:53.088Z,100878.98
2018-08-18T05:16:59.160Z,100879.82
2018-08-18T05:18:05.338Z,100879.73
2018-08-18T05:19:11.427Z,100881.16
2018-08-18T05:20:17.687Z,100878.04
2018-08-18T05:21:23.776Z,100875.44
2018-08-18T05:22:29.740Z,100882.41
2018-08-18T05:23:46.310Z,100883.25
2018-08-18T05:25:03.300Z,100882.08
2018-08-18T05:26:23.145Z,100886.20
2018-08-18T05:27:41.386Z,100886.30
2018-08-18T05:29:03.228Z,100890.73
2018-08-18T05:31:52.646Z,100892.48
2018-08-18T05:33:11.521Z,100894.72
2018-08-18T05:34:30.425Z,100893.95
2018-08-18T05:35:40.256Z,100898.37
2018-08-18T05:36:45.996Z,100890.17
2018-08-18T05:37:52.099Z,100894.62
2018-08-18T05:38:58.305Z,100893.86
2018-08-18T05:40:06.857Z,100891.13
2018-08-18T05:41:14.380Z,100897.43
2018-08-18T05:42:20.311Z,100901.59
2018-08-18T05:43:26.756Z,100902.42
2018-08-18T05:44:35.711Z,100904.84
2018-08-18T05:45:42.148Z,100904.28
2018-08-18T05:46:48.236Z,100906.64
2018-08-18T05:47:53.608Z,100906.88
2018-08-18T05:48:59.526Z,100911.91
2018-08-18T05:50:04.785Z,100913.05
2018-08-18T05:51:10.780Z,100909.53
2018-08-18T05:52:16.920Z,100915.41
2018-08-18T05:53:22.923Z,100918.23
2018-08-18T05:54:29.644Z,100916.70
2018-08-18T05:55:35.654Z,100918.95
2018-08-18T05:56:41.433Z,100913.78
2018-08-18T05:57:47.405Z,100917.30
2018-08-18T05:58:54.696Z,100919.28
2018-08-18T06:00:00.662Z,100917.00
2018-08-18T06:01:05.850Z,100918.13
2018-08-18T06:02:11.184Z,100920.62
2018-08-18T06:03:16.794Z,100922.00
2018-08-18T06:04:24.464Z,100920.06
2018-08-18T06:05:32.549Z,100918.66
2018-08-18T06:06:41.014Z,100919.95
2018-08-18T06:07:48.850Z,100925.42
2018-08-18T06:08:56.140Z,100925.41
2018-08-18T06:10:03.388Z,100916.70
2018-08-18T06:11:10.938Z,100921.08
2018-08-18T06:12:18.349Z,100917.39
2018-08-18T06:13:25.506Z,100918.94
2018-08-18T06:14:33.093Z,100919.33
2018-08-18T06:15:40.556Z,100924.23
2018-08-18T06:16:46.588Z,100922.77
2018-08-18T06:17:53.955Z,100923.20
2018-08-18T06:19:00.976Z,100922.52
2018-08-18T06:20:08.950Z,100928.28
2018-08-18T06:21:15.803Z,100924.95
2018-08-18T06:22:24.657Z,100932.90
2018-08-18T06:23:31.847Z,100934.02
2018-08-18T06:24:38.399Z,100931.16
2018-08-18T06:25:46.369Z,100935.13
2018-08-18T06:26:54.294Z,100930.71
2018-08-18T06:28:04.355Z,100932.87
2018-08-18T06:29:11.646Z,100934.52
2018-08-18T06:30:18.690Z,100935.22
2018-08-18T06:31:24.826Z,100930.05
2018-08-18T06:32:33.167Z,100938.34
2018-08-18T06:33:40.165Z,100931.59
2018-08-18T06:34:47.209Z,100938.00
2018-08-18T06:35:54.368Z,100944.77
2018-08-18T06:37:00.983Z,100942.05
2018-08-18T06:38:08.089Z,100943.54
2018-08-18T06:39:15.420Z,100947.62
2018-08-18T06:40:22.620Z,100943.96
2018-08-18T06:41:29.997Z,100944.28
2018-08-18T06:42:35.933Z,100946.72
2018-08-18T06:43:43.119Z,100950.63
2018-08-18T06:44:50.214Z,100950.52
2018-08-18T06:45:56.209Z,100944.47
2018-08-18T06:47:03.358Z,100946.90
2018-08-18T06:48:10.342Z,100949.14
2018-08-18T06:49:18.274Z,100948.63
2018-08-18T06:50:25.867Z,100947.47
2018-08-18T06:51:32.925Z,100950.09
2018-08-18T06:52:40.358Z,100953.61
2018-08-18T06:53:49.908Z,100953.67
2018-08-18T06:54:58.142Z,100954.71
2018-08-18T06:56:05.629Z,100954.95
2018-08-18T06:57:12.703Z,100954.27
2018-08-18T06:58:20.252Z,100954.45
2018-08-18T06:59:27.854Z,100955.09
2018-08-18T07:00:34.992Z,100958.97
2018-08-18T07:01:42.397Z,100957.42
2018-08-18T07:02:50.050Z,100959.47
2018-08-18T07:03:58.623Z,100959.42
2018-08-18T07:05:06.276Z,100954.58
2018-08-18T07:06:13.523Z,100957.59
2018-08-18T07:07:21.794Z,100962.52
2018-08-18T07:08:28.513Z,100960.91
2018-08-18T07:09:35.980Z,100961.28
2018-08-18T07:10:42.714Z,100956.91
2018-08-18T07:11:49.513Z,100957.56
2018-08-18T07:13:00.050Z,100959.86
2018-08-18T07:14:07.442Z,100959.09
2018-08-18T07:15:14.038Z,100962.95
2018-08-18T07:16:21.561Z,100966.27
2018-08-18T07:17:29.506Z,100960.76
2018-08-18T07:18:37.136Z,100963.60
2018-08-18T07:19:44.920Z,100958.61
2018-08-18T07:20:51.731Z,100956.71
2018-08-18T07:21:58.625Z,100963.61
2018-08-18T07:23:04.472Z,100963.72
2018-08-18T07:24:12.555Z,100964.47
2018-08-18T07:25:20.265Z,100962.77
2018-08-18T07:26:26.466Z,100970.64
2018-08-18T07:27:34.722Z,100968.66
2018-08-18T07:28:41.982Z,100967.87
2018-08-18T07:29:47.411Z,100971.09
2018-08-18T07:30:53.152Z,100971.91
2018-08-18T07:31:59.343Z,100977.16
2018-08-18T07:33:06.073Z,100980.58
2018-08-18T07:34:12.145Z,100980.20
2018-08-18T07:35:18.449Z,100978.34
2018-08-18T07:36:24.552Z,100975.52
2018-08-18T07:37:30.774Z,100977.67
2018-08-18T07:38:36.952Z,100975.48
2018-08-18T07:39:42.970Z,100980.14
2018-08-18T07:40:48.628Z,100976.91
2018-08-18T07:41:54.630Z,100979.10
2018-08-18T07:43:00.006Z,100977.88
2018-08-18T07:44:05.743Z,100975.83
2018-08-18T07:45:11.498Z,100977.58
2018-08-18T07:46:18.567Z,100976.77
2018-08-18T07:47:24.622Z,100981.53
2018-08-18T07:48:30.651Z,100981.20
2018-08-18T07:49:37.136Z,100980.63
2018-08-18T07:50:43.029Z,100979.91
2018-08-18T07:51:49.994Z,100984.01
2018-08-18T07:52:55.811Z,100985.57
2018-08-18T07:54:02.327Z,100979.14
2018-08-18T07:55:09.059Z,100982.13
2018-08-18T07:56:15.779Z,100985.70
2018-08-18T07:57:22.054Z,100991.62
2018-08-18T07:58:28.315Z,100992.06
2018-08-18T07:59:34.128Z,100989.64
2018-08-18T08:00:41.063Z,100989.34
2018-08-18T08:01:47.741Z,100991.28
2018-08-18T08:02:55.292Z,100991.15
2018-08-18T08:04:01.840Z,100995.28
2018-08-18T08:05:07.234Z,100989.28
2018-08-18T08:06:13.750Z,100989.77
2018-08-18T08:07:20.742Z,100989.70
2018-08-18T08:08:25.872Z,100988.20
2018-08-18T08:09:32.292Z,100992.75
2018-08-18T08:10:39.870Z,100991.47
2018-08-18T08:11:47.251Z,100990.03
2018-08-18T08:12:55.411Z,100996.89
2018-08-18T08:14:02.768Z,100994.92
2018-08-18T08:15:11.119Z,100991.77
2018-08-18T08:16:20.759Z,100992.34
2018-08-18T08:17:28.889Z,100990.45
2018-08-18T08:18:36.429Z,100992.27
2018-08-18T08:19:42.905Z,100987.48
2018-08-18T08:20:49.523Z,100994.09
2018-08-18T08:21:55.630Z,100993.60
2018-08-18T08:23:01.248Z,101001.48
2018-08-18T08:24:07.246Z,100995.55
2018-08-18T08:25:12.930Z,101000.55
2018-08-18T08:26:18.664Z,101002.34
2018-08-18T08:27:25.998Z,101002.84
2018-08-18T08:28:32.521Z,101005.78
2018-08-18T08:29:39.585Z,101009.06
2018-08-18T08:30:47.177Z,101009.52
2018-08-18T08:31:53.043Z,101008.03
2018-08-18T08:33:01.833Z,101014.13
2018-08-18T08:34:09.442Z,101017.24
2018-08-18T08:35:16.745Z,101015.52
2018-08-18T08:36:23.776Z,101014.14
2018-08-18T08:37:30.396Z,101020.09
2018-08-18T08:38:35.887Z,101023.98
2018-08-18T08:39:41.998Z,101022.94
2018-08-18T08:40:48.087Z,101019.73
2018-08-18T08:41:54.188Z,101019.87
2018-08-18T08:43:00.277Z,101027.25
2018-08-18T08:44:06.059Z,101023.31
2018-08-18T08:45:13.698Z,101020.88
2018-08-18T08:46:20.405Z,101019.44
2018-08-18T08:47:27.758Z,101023.26
2018-08-18T08:48:35.258Z,101026.31
2018-08-18T08:49:44.148Z,101023.68
2018-08-18T08:50:52.648Z,101027.70
2018-08-18T08:51:59.686Z,101024.38
2018-08-18T08:53:08.415Z,101028.00
2018-08-18T08:54:16.282Z,101028.97
2018-08-18T08:55:24.042Z,101029.70
2018-08-18T08:56:31.666Z,101025.50
2018-08-18T08:57:40.188Z,101022.41
2018-08-18T08:58:47.538Z,101029.14
2018-08-18T08:59:55.932Z,101032.38
2018-08-18T09:02:15.221Z,101033.70
2018-08-18T09:03:22.939Z,101027.44
2018-08-18T09:04:30.651Z,101025.48
2018-08-18T09:05:38.555Z,101028.38
2018-08-18T09:06:46.496Z,101033.32
2018-08-18T09:07:54.798Z,101025.70
2018-08-18T09:09:02.546Z,101033.13
2018-08-18T09:10:10.210Z,101032.06
2018-08-18T09:11:17.929Z,101026.95
2018-08-18T09:12:25.373Z,101021.30
2018-08-18T09:13:33.201Z,101026.92
2018-08-18T09:14:40.512Z,101024.38
2018-08-18T09:15:52.764Z,101026.27
2018-08-18T09:16:59.972Z,101024.13
2018-08-18T09:18:07.242Z,101017.92
2018-08-18T09:19:16.259Z,101015.89
2018-08-18T09:20:23.650Z,101011.69
2018-08-18T09:21:30.430Z,101016.95
2018-08-18T09:22:37.932Z,101017.46
2018-08-18T09:23:46.042Z,101013.93
2018-08-18T09:24:53.682Z,101014.69
2018-08-18T09:26:01.650Z,101015.12
2018-08-18T09:27:09.603Z,101014.52
2018-08-18T09:28:18.173Z,101009.95
2018-08-18T09:29:25.313Z,101012.67
2018-08-18T09:30:33.125Z,101014.20
2018-08-18T09:31:42.025Z,101013.70
2018-08-18T09:32:50.273Z,101012.39
2018-08-18T09:35:05.208Z,101007.76
2018-08-18T09:36:11.407Z,101008.16
2018-08-18T09:37:17.733Z,101008.89
2018-08-18T09:38:23.412Z,101012.94
2018-08-18T09:39:29.244Z,101007.81
2018-08-18T09:40:35.389Z,101004.77
2018-08-18T09:41:41.466Z,101013.28
2018-08-18T09:42:48.235Z,101010.29
2018-08-18T09:43:53.953Z,101011.40
2018-08-18T09:44:59.661Z,101014.21
2018-08-18T09:46:05.325Z,101007.76
2018-08-18T09:47:11.277Z,101010.69
2018-08-18T09:48:17.036Z,101009.73
2018-08-18T09:49:23.080Z,101012.36
2018-08-18T09:50:29.155Z,101010.16
2018-08-18T09:51:35.090Z,101011.59
2018-08-18T09:52:41.206Z,101010.74
2018-08-18T09:53:47.331Z,101011.47
2018-08-18T09:54:53.646Z,101006.87
2018-08-18T09:57:03.609Z,101006.79
2018-08-18T09:58:09.698Z,101001.69
2018-08-18T09:59:15.850Z,101006.48
2018-08-18T10:00:21.581Z,101004.12
2018-08-18T10:01:27.267Z,101002.34
2018-08-18T10:02:33.616Z,101005.20
2018-08-18T10:03:39.754Z,101006.37
2018-08-18T10:04:45.860Z,101008.77
2018-08-18T10:05:51.940Z,101001.59
2018-08-18T10:06:57.381Z,101006.24
2018-08-18T10:08:02.644Z,100999.19
2018-08-18T10:09:08.277Z,101009.31
2018-08-18T10:10:13.965Z,101005.73
2018-08-18T10:11:21.577Z,101000.80
2018-08-18T10:12:27.573Z,101005.42
2018-08-18T10:13:33.558Z,101001.55
2018-08-18T10:14:43.587Z,101004.81
2018-08-18T10:15:50.000Z,100997.38
2018-08-18T10:16:56.287Z,100996.81
2018-08-18T10:18:01.958Z,100998.76
2018-08-18T10:19:07.189Z,101001.77
2018-08-18T10:20:18.248Z,101002.16
2018-08-18T10:21:28.191Z,101000.22
2018-08-18T10:22:34.220Z,101000.77
2018-08-18T10:23:40.931Z,100996.38
2018-08-18T10:24:48.852Z,101001.23
2018-08-18T10:25:57.070Z,101005.25
2018-08-18T10:27:04.524Z,101005.40
2018-08-18T10:28:12.354Z,101001.98
2018-08-18T10:29:20.816Z,101003.63
2018-08-18T10:30:29.417Z,101002.19
2018-08-18T10:31:37.218Z,101000.05
2018-08-18T10:32:45.234Z,100994.80
2018-08-18T10:33:54.597Z,101000.97
2018-08-18T10:35:02.500Z,101000.44
2018-08-18T10:36:11.293Z,100998.60
2018-08-18T10:37:20.060Z,101000.75
2018-08-18T10:38:27.567Z,100997.11
2018-08-18T10:39:34.825Z,100995.18
2018-08-18T10:40:42.849Z,101001.83
2018-08-18T10:41:50.619Z,101001.06
2018-08-18T10:42:58.164Z,101003.06
2018-08-18T10:44:07.019Z,101001.78
2018-08-18T10:45:18.988Z,100998.12
2018-08-18T10:46:27.219Z,100991.14
2018-08-18T10:47:34.528Z,100996.63
2018-08-18T10:48:40.644Z,100999.25
2018-08-18T10:51:37.444Z,100997.95
2018-08-18T10:52:54.750Z,100992.57
2018-08-18T10:54:00.512Z,100993.98
2018-08-18T10:55:19.000Z,100994.08
2018-08-18T10:56:25.025Z,100998.00
2018-08-18T10:59:13.923Z,100990.80
2018-08-18T11:00:20.556Z,100994.28
2018-08-18T11:01:32.751Z,100989.59
2018-08-18T11:02:39.876Z,100990.01
2018-08-18T11:03:47.524Z,100993.91
2018-08-18T11:04:56.033Z,100993.15
2018-08-18T11:06:03.570Z,100993.05
2018-08-18T11:07:11.135Z,100982.19
2018-08-18T11:08:18.828Z,100984.22
2018-08-18T11:09:28.642Z,100985.42
2018-08-18T11:10:36.156Z,100985.13
2018-08-18T11:11:47.111Z,100983.94
2018-08-18T11:12:53.721Z,100989.28
2018-08-18T11:14:01.054Z,100985.63
2018-08-18T11:15:07.617Z,100988.73
2018-08-18T11:16:15.254Z,100985.08
2018-08-18T11:17:23.386Z,100986.77
2018-08-18T11:18:33.048Z,100985.70
2018-08-18T11:19:40.457Z,100991.00
2018-08-18T11:20:47.724Z,100987.13
2018-08-18T11:21:54.976Z,100991.15
2018-08-18T11:23:02.829Z,100992.71
2018-08-18T11:24:09.276Z,100989.05
2018-08-18T11:25:17.533Z,100991.12
2018-08-18T11:26:25.792Z,100990.27
2018-08-18T11:27:33.915Z,100987.30
2018-08-18T11:28:42.394Z,100991.77
2018-08-18T11:29:49.357Z,100987.53
2018-08-18T11:30:58.123Z,100985.83
2018-08-18T11:32:05.049Z,100983.73
2018-08-18T11:33:11.413Z,100984.36
2018-08-18T11:34:19.249Z,100983.71
2018-08-18T11:35:26.975Z,100991.13
2018-08-18T11:36:34.054Z,100991.70
2018-08-18T11:37:40.496Z,100985.69
2018-08-18T11:38:47.317Z,100986.27
2018-08-18T11:39:54.656Z,100985.91
2018-08-18T11:41:02.590Z,100991.50
2018-08-18T11:42:21.594Z,100982.69
2018-08-18T11:43:27.257Z,100982.15
2018-08-18T11:44:33.517Z,100982.22
2018-08-18T11:45:42.588Z,100981.83
2018-08-18T11:46:50.414Z,100977.64
2018-08-18T11:47:56.074Z,100991.30
2018-08-18T11:49:01.932Z,100987.75
2018-08-18T11:50:07.984Z,100979.11
2018-08-18T11:51:14.486Z,100980.05
2018-08-18T11:52:20.620Z,100983.47
2018-08-18T11:53:26.753Z,100980.11
2018-08-18T11:54:32.721Z,100984.38
2018-08-18T11:55:38.729Z,100982.94
2018-08-18T11:56:44.639Z,100981.98
2018-08-18T11:57:50.693Z,100985.97
2018-08-18T11:58:55.860Z,100982.54
2018-08-18T12:00:02.669Z,100981.56
2018-08-18T12:01:11.681Z,100977.28
2018-08-18T12:02:17.608Z,100980.19
2018-08-18T12:03:23.344Z,100979.56
2018-08-18T12:04:29.333Z,100974.41
2018-08-18T12:05:35.365Z,100977.73
2018-08-18T12:06:41.107Z,100976.66
2018-08-18T12:07:46.556Z,100980.16
2018-08-18T12:08:57.601Z,100981.52
2018-08-18T12:10:03.614Z,100977.16
2018-08-18T12:11:09.023Z,100980.16
2018-08-18T12:12:14.438Z,100983.39
2018-08-18T12:13:19.530Z,100971.80
2018-08-18T12:14:25.734Z,100976.27
2018-08-18T12:15:31.391Z,100973.25
2018-08-18T12:16:37.289Z,100976.95
2018-08-18T12:17:42.404Z,100973.91
2018-08-18T12:18:48.113Z,100972.64
2018-08-18T12:19:54.248Z,100972.75
2018-08-18T12:21:00.040Z,100963.22
2018-08-18T12:22:05.684Z,100964.54
2018-08-18T12:23:11.431Z,100962.99
2018-08-18T12:24:17.452Z,100959.27
2018-08-18T12:25:23.117Z,100953.59
2018-08-18T12:26:29.168Z,100954.52
2018-08-18T12:27:34.769Z,100952.65
2018-08-18T12:28:39.951Z,100954.16
2018-08-18T12:29:46.131Z,100954.67
2018-08-18T12:30:51.883Z,100950.66
2018-08-18T12:31:57.590Z,100948.02
2018-08-18T12:33:04.228Z,100946.36
2018-08-18T12:34:10.268Z,100950.87
2018-08-18T12:35:16.136Z,100943.38
2018-08-18T12:36:21.661Z,100942.27
2018-08-18T12:37:27.689Z,100945.34
2018-08-18T12:38:32.775Z,100939.49
2018-08-18T12:39:39.016Z,100944.94
2018-08-18T12:40:55.052Z,100944.11
2018-08-18T12:42:00.918Z,100939.58
2018-08-18T12:43:06.006Z,100936.84
2018-08-18T12:44:11.544Z,100934.83
2018-08-18T12:45:17.040Z,100928.17
2018-08-18T12:46:22.809Z,100927.69
2018-08-18T12:47:33.285Z,100932.97
2018-08-18T12:48:44.154Z,100925.19
2018-08-18T12:49:49.991Z,100927.63